createdAt,value
2023-05-01T05:01:08.080Z,30.22
2023-05-01T05:02:08.104Z,30.15
2023-05-01T05:03:08.284Z,30.09
2023-05-01T05:04:08.254Z,30.14
2023-05-01T05:05:08.209Z,30.15
2023-05-01T05:06:08.286Z,30.15
2023-05-01T05:07:08.251Z,30.11
2023-05-01T05:08:08.273Z,30.14
2023-05-01T05:09:08.311Z,30.08
2023-05-01T05:10:08.399Z,30.04
2023-05-01T05:11:08.373Z,30.04
2023-05-01T05:12:08.382Z,30.10
2023-05-01T05:13:08.392Z,30.03
2023-05-01T05:14:08.394Z,29.92
2023-05-01T05:15:08.399Z,30.03
2023-05-01T05:16:08.442Z,29.91
2023-05-01T05:17:08.501Z,29.96
2023-05-01T05:18:08.533Z,29.88
2023-05-01T05:19:08.484Z,29.85
2023-05-01T05:20:08.548Z,29.86
2023-05-01T05:21:08.522Z,29.92
2023-05-01T05:22:08.545Z,29.85
2023-05-01T05:23:08.836Z,29.78
2023-05-01T05:24:08.567Z,29.82
2023-05-01T05:25:08.627Z,29.73
2023-05-01T05:26:08.669Z,29.88
2023-05-01T05:27:08.665Z,29.75
2023-05-01T05:28:08.701Z,29.74
2023-05-01T05:29:08.711Z,29.79
2023-05-01T05:30:08.739Z,29.67
2023-05-01T05:31:08.780Z,29.65
2023-05-01T05:32:08.865Z,29.70
2023-05-01T05:33:08.988Z,29.73
2023-05-01T05:34:08.915Z,29.68
2023-05-01T05:35:08.927Z,29.70
2023-05-01T05:36:08.962Z,29.59
2023-05-01T05:37:09.010Z,29.65
2023-05-01T05:38:09.093Z,29.68
2023-05-01T05:39:09.111Z,29.63
2023-05-01T05:40:09.223Z,29.56
2023-05-01T05:41:09.278Z,29.59
2023-05-01T05:42:09.218Z,29.57
2023-05-01T05:43:09.287Z,29.53
2023-05-01T05:44:09.310Z,29.63
2023-05-01T05:45:09.384Z,29.60
2023-05-01T05:46:09.596Z,29.47
2023-05-01T05:47:09.486Z,29.54
2023-05-01T05:48:09.616Z,29.52
2023-05-01T05:49:09.592Z,29.46
2023-05-01T05:50:09.640Z,29.48
2023-05-01T05:51:09.664Z,29.43
2023-05-01T05:52:09.759Z,29.49
2023-05-01T05:53:09.742Z,29.44
2023-05-01T05:54:09.783Z,29.43
2023-05-01T05:55:09.816Z,29.52
2023-05-01T05:56:09.849Z,29.44
2023-05-01T05:57:10.035Z,29.50
2023-05-01T05:58:09.900Z,29.52
2023-05-01T05:59:09.985Z,29.46
2023-05-01T06:00:10.040Z,29.44
2023-05-01T06:01:10.059Z,29.40
2023-05-01T06:02:10.130Z,29.44
2023-05-01T06:03:10.222Z,29.43
2023-05-01T06:04:10.197Z,29.42
2023-05-01T06:05:10.198Z,29.35
2023-05-01T06:06:10.354Z,29.29
2023-05-01T06:07:10.276Z,29.33
2023-05-01T06:08:10.322Z,29.40
2023-05-01T06:09:10.352Z,29.40
2023-05-01T06:10:10.384Z,29.42
2023-05-01T06:11:10.401Z,29.35
2023-05-01T06:12:10.448Z,29.43
2023-05-01T06:13:14.300Z,29.31
2023-05-01T06:14:10.496Z,29.35
2023-05-01T06:15:10.478Z,29.29
2023-05-01T06:16:10.556Z,29.39
2023-05-01T06:17:10.490Z,29.41
2023-05-01T06:18:10.556Z,29.38
2023-05-01T06:19:10.499Z,29.29
2023-05-01T06:20:10.475Z,29.39
2023-05-01T06:21:10.477Z,29.36
2023-05-01T06:22:10.492Z,29.39
2023-05-01T06:23:10.435Z,29.31
2023-05-01T06:24:10.465Z,29.42
2023-05-01T06:25:10.492Z,29.25
2023-05-01T06:26:10.482Z,29.31
2023-05-01T06:27:10.463Z,29.32
2023-05-01T06:28:10.431Z,29.38
2023-05-01T06:29:10.442Z,29.29
2023-05-01T06:30:10.442Z,29.28
2023-05-01T06:31:10.421Z,29.33
2023-05-01T06:32:10.385Z,29.33
2023-05-01T06:33:10.418Z,29.26
2023-05-01T06:34:10.373Z,29.27
2023-05-01T06:35:10.367Z,29.28
2023-05-01T06:36:10.373Z,29.26
2023-05-01T06:37:10.368Z,29.24
2023-05-01T06:38:10.354Z,29.24
2023-05-01T06:39:10.396Z,29.29
2023-05-01T06:40:10.458Z,29.31
2023-05-01T06:41:10.500Z,29.28
2023-05-01T06:42:10.542Z,29.22
2023-05-01T06:43:10.568Z,29.24
2023-05-01T06:44:10.696Z,29.27
2023-05-01T06:45:10.666Z,29.22
2023-05-01T06:46:10.785Z,29.25
2023-05-01T06:47:10.793Z,29.29
2023-05-01T06:48:10.778Z,29.27
2023-05-01T06:49:10.787Z,29.19
2023-05-01T06:50:10.894Z,29.18
2023-05-01T06:51:10.918Z,29.22
2023-05-01T06:52:10.907Z,29.12
2023-05-01T06:53:10.964Z,29.18
2023-05-01T06:54:11.011Z,29.21
2023-05-01T06:55:11.064Z,29.19
2023-05-01T06:56:11.088Z,29.22
2023-05-01T06:57:11.133Z,29.21
2023-05-01T06:58:22.556Z,29.22
2023-05-01T06:59:12.163Z,29.18
2023-05-01T07:00:11.212Z,29.11
2023-05-01T07:01:11.177Z,29.15
2023-05-01T07:02:11.221Z,29.21
2023-05-01T07:03:11.135Z,29.15
2023-05-01T07:04:11.115Z,29.18
2023-05-01T07:05:11.119Z,29.05
2023-05-01T07:06:11.248Z,29.11
2023-05-01T07:07:11.115Z,29.12
2023-05-01T07:08:11.153Z,29.00
2023-05-01T07:09:11.088Z,29.12
2023-05-01T07:10:11.181Z,29.03
2023-05-01T07:11:11.202Z,29.10
2023-05-01T07:12:11.205Z,29.03
2023-05-01T07:13:11.231Z,29.07
2023-05-01T07:14:11.255Z,29.14
2023-05-01T07:15:11.364Z,29.04
2023-05-01T07:16:11.390Z,29.03
2023-05-01T07:17:11.404Z,29.04
2023-05-01T07:18:11.488Z,29.04
2023-05-01T07:19:11.509Z,29.00
2023-05-01T07:20:11.600Z,29.03
2023-05-01T07:21:11.570Z,29.04
2023-05-01T07:22:11.630Z,29.03
2023-05-01T07:23:11.684Z,29.03
2023-05-01T07:24:11.717Z,29.00
2023-05-01T07:25:11.864Z,29.04
2023-05-01T07:26:11.799Z,28.93
2023-05-01T07:27:11.852Z,29.03
2023-05-01T07:28:11.897Z,28.93
2023-05-01T07:29:11.951Z,28.90
2023-05-01T07:30:11.970Z,28.97
2023-05-01T07:31:12.038Z,28.96
2023-05-01T07:32:12.208Z,28.88
2023-05-01T07:33:12.126Z,28.86
2023-05-01T07:34:12.162Z,28.88
2023-05-01T07:35:12.223Z,28.91
2023-05-01T07:36:12.238Z,28.93
2023-05-01T07:37:12.312Z,28.88
2023-05-01T07:38:12.279Z,28.96
2023-05-01T07:39:12.389Z,28.83
2023-05-01T07:40:12.391Z,28.94
2023-05-01T07:41:12.441Z,28.91
2023-05-01T07:42:12.495Z,28.87
2023-05-01T07:43:12.556Z,28.84
2023-05-01T07:44:12.580Z,28.80
2023-05-01T07:45:12.640Z,28.96
2023-05-01T07:46:12.792Z,28.91
2023-05-01T07:47:12.697Z,28.80
2023-05-01T07:48:12.892Z,28.77
2023-05-01T07:49:12.815Z,28.88
2023-05-01T07:50:12.942Z,28.90
2023-05-01T07:51:12.830Z,28.83
2023-05-01T07:52:12.889Z,28.94
2023-05-01T07:53:12.927Z,28.89
2023-05-01T07:54:12.991Z,28.80
2023-05-01T07:55:13.085Z,28.80
2023-05-01T07:56:13.047Z,28.91
2023-05-01T07:57:13.076Z,28.88
2023-05-01T07:58:13.123Z,28.90
2023-05-01T07:59:13.180Z,28.94
2023-05-01T08:00:13.238Z,28.94
2023-05-01T08:01:13.249Z,28.91
2023-05-01T08:02:13.366Z,28.83
2023-05-01T08:03:13.490Z,28.85
2023-05-01T08:04:13.544Z,28.86
2023-05-01T08:05:13.480Z,28.86
2023-05-01T08:06:13.513Z,28.89
2023-05-01T08:07:13.561Z,28.85
2023-05-01T08:08:13.611Z,28.78
2023-05-01T08:09:13.653Z,28.74
2023-05-01T08:10:13.693Z,28.79
2023-05-01T08:11:13.726Z,28.82
2023-05-01T08:12:13.834Z,28.78
2023-05-01T08:13:13.888Z,28.75
2023-05-01T08:14:13.959Z,28.74
2023-05-01T08:15:14.001Z,28.72
2023-05-01T08:16:14.118Z,28.75
2023-05-01T08:17:14.124Z,28.72
2023-05-01T08:18:14.154Z,28.76
2023-05-01T08:19:14.188Z,28.72
2023-05-01T08:20:14.308Z,28.74
2023-05-01T08:21:14.338Z,28.70
2023-05-01T08:22:14.381Z,28.70
2023-05-01T08:23:14.472Z,28.65
2023-05-01T08:24:14.460Z,28.69
2023-05-01T08:25:14.547Z,28.68
2023-05-01T08:26:14.665Z,28.65
2023-05-01T08:27:14.643Z,28.71
2023-05-01T08:28:14.725Z,28.68
2023-05-01T08:29:14.762Z,28.68
2023-05-01T08:30:14.829Z,28.71
2023-05-01T08:31:14.876Z,28.72
2023-05-01T08:32:14.924Z,28.74
2023-05-01T08:33:15.047Z,28.74
2023-05-01T08:34:15.017Z,28.69
2023-05-01T08:35:15.085Z,28.74
2023-05-01T08:36:15.146Z,28.71
2023-05-01T08:37:15.173Z,28.77
2023-05-01T08:38:15.264Z,28.74
2023-05-01T08:39:15.276Z,28.74
2023-05-01T08:40:15.398Z,28.78
2023-05-01T08:41:15.380Z,28.76
2023-05-01T08:42:15.450Z,28.73
2023-05-01T08:43:15.495Z,28.78
2023-05-01T08:44:15.534Z,28.75
2023-05-01T08:45:15.552Z,28.73
2023-05-01T08:46:15.693Z,28.79
2023-05-01T08:47:15.624Z,28.73
2023-05-01T08:48:15.699Z,28.79
2023-05-01T08:49:15.749Z,28.74
2023-05-01T08:50:15.762Z,28.76
2023-05-01T08:51:15.817Z,28.74
2023-05-01T08:52:15.921Z,28.78
2023-05-01T08:53:15.907Z,28.78
2023-05-01T08:54:15.990Z,28.76
2023-05-01T08:55:15.997Z,28.77
2023-05-01T08:56:16.065Z,28.79
2023-05-01T08:57:16.093Z,28.74
2023-05-01T08:58:16.114Z,28.79
2023-05-01T08:59:16.151Z,28.76
2023-05-01T09:00:16.173Z,28.74
2023-05-01T09:01:16.327Z,28.77
2023-05-01T09:02:16.340Z,28.76
2023-05-01T09:03:16.453Z,28.80
2023-05-01T09:04:16.422Z,28.73
2023-05-01T09:05:16.417Z,28.74
2023-05-01T09:06:16.534Z,28.72
2023-05-01T09:07:16.525Z,28.77
2023-05-01T09:08:16.560Z,28.73
2023-05-01T09:09:16.585Z,28.73
2023-05-01T09:10:16.626Z,28.71
2023-05-01T09:11:16.720Z,28.75
2023-05-01T09:12:16.699Z,28.78
2023-05-01T09:13:16.716Z,28.71
2023-05-01T09:14:16.821Z,28.72
2023-05-01T09:15:16.776Z,28.74
2023-05-01T09:16:16.886Z,28.76
2023-05-01T09:17:16.905Z,28.75
2023-05-01T09:18:17.054Z,28.75
2023-05-01T09:19:16.903Z,28.74
2023-05-01T09:20:16.954Z,28.75
2023-05-01T09:21:16.973Z,28.76
2023-05-01T09:22:17.021Z,28.75
2023-05-01T09:23:17.034Z,28.74
2023-05-01T09:24:17.072Z,28.72
2023-05-01T09:25:17.089Z,28.69
2023-05-01T09:26:17.213Z,28.74
2023-05-01T09:27:17.160Z,28.72
2023-05-01T09:28:17.214Z,28.75
2023-05-01T09:29:17.233Z,28.72
2023-05-01T09:30:17.303Z,28.74
2023-05-01T09:31:17.421Z,28.71
2023-05-01T09:32:17.479Z,28.71
2023-05-01T09:33:17.469Z,28.71
2023-05-01T09:34:17.398Z,28.74
2023-05-01T09:35:17.499Z,28.77
2023-05-01T09:36:17.477Z,28.77
2023-05-01T09:37:17.534Z,28.71
2023-05-01T09:38:17.519Z,28.70
2023-05-01T09:39:17.595Z,28.72
2023-05-01T09:40:17.571Z,28.78
2023-05-01T09:41:17.609Z,28.75
2023-05-01T09:42:17.684Z,28.72
2023-05-01T09:43:17.638Z,28.71
2023-05-01T09:44:17.751Z,28.73
2023-05-01T09:45:17.714Z,28.73
2023-05-01T09:46:17.752Z,28.73
2023-05-01T09:47:17.764Z,28.76
2023-05-01T09:48:17.783Z,28.68
2023-05-01T09:49:17.823Z,28.70
2023-05-01T09:50:17.839Z,28.68
2023-05-01T09:51:17.842Z,28.73
2023-05-01T09:52:17.954Z,28.70
2023-05-01T09:53:17.936Z,28.69
2023-05-01T09:54:17.958Z,28.67
2023-05-01T09:55:17.943Z,28.65
2023-05-01T09:56:18.017Z,28.68
2023-05-01T09:57:18.020Z,28.68
2023-05-01T09:58:18.079Z,28.66
2023-05-01T09:59:18.072Z,28.66
2023-05-01T10:00:18.122Z,28.71
2023-05-01T10:01:18.192Z,28.65
2023-05-01T10:02:18.282Z,28.67
2023-05-01T10:03:18.245Z,28.68
2023-05-01T10:04:18.302Z,28.65
2023-05-01T10:05:18.219Z,28.67
2023-05-01T10:06:18.305Z,28.67
2023-05-01T10:07:18.325Z,28.67
2023-05-01T10:08:18.337Z,28.67
2023-05-01T10:09:18.356Z,28.66
2023-05-01T10:10:18.538Z,28.64
2023-05-01T10:11:18.375Z,28.64
2023-05-01T10:12:18.445Z,28.68
2023-05-01T10:13:18.412Z,28.62
2023-05-01T10:14:18.462Z,28.64
2023-05-01T10:15:25.432Z,28.65
2023-05-01T10:16:19.498Z,28.68
2023-05-01T10:17:18.638Z,28.68
2023-05-01T10:18:18.471Z,28.69
2023-05-01T10:19:18.440Z,28.64
2023-05-01T10:20:18.424Z,28.68
2023-05-01T10:21:18.441Z,28.66
2023-05-01T10:22:18.453Z,28.64
2023-05-01T10:23:18.430Z,28.70
2023-05-01T10:24:18.549Z,28.67
2023-05-01T10:25:18.369Z,28.68
2023-05-01T10:26:18.397Z,28.67
2023-05-01T10:27:18.415Z,28.67
2023-05-01T10:28:18.379Z,28.70
2023-05-01T10:29:18.352Z,28.66
2023-05-01T10:30:18.373Z,28.66
2023-05-01T10:31:18.410Z,28.66
2023-05-01T10:32:18.387Z,28.67
2023-05-01T10:33:18.427Z,28.68
2023-05-01T10:34:18.380Z,28.64
2023-05-01T10:35:18.425Z,28.71
2023-05-01T10:36:18.442Z,28.67
2023-05-01T10:37:18.501Z,28.64
2023-05-01T10:38:18.485Z,28.71
2023-05-01T10:39:18.451Z,28.61
2023-05-01T10:40:18.475Z,28.67
2023-05-01T10:41:18.497Z,28.68
2023-05-01T10:42:18.574Z,28.69
2023-05-01T10:43:18.632Z,28.66
2023-05-01T10:44:18.618Z,28.68
2023-05-01T10:45:18.631Z,28.67
2023-05-01T10:46:18.686Z,28.69
2023-05-01T10:47:18.754Z,28.71
2023-05-01T10:48:18.664Z,28.69
2023-05-01T10:49:18.692Z,28.66
2023-05-01T10:50:18.742Z,28.67
2023-05-01T10:51:18.761Z,28.64
2023-05-01T10:52:18.758Z,28.70
2023-05-01T10:53:18.848Z,28.67
2023-05-01T10:54:18.839Z,28.70
2023-05-01T10:55:18.872Z,28.70
2023-05-01T10:56:18.876Z,28.67
2023-05-01T10:57:18.893Z,28.67
2023-05-01T10:58:18.884Z,28.73
2023-05-01T10:59:18.925Z,28.73
2023-05-01T11:00:19.017Z,28.72
2023-05-01T11:01:19.051Z,28.72
2023-05-01T11:02:19.061Z,28.72
2023-05-01T11:03:19.015Z,28.70
2023-05-01T11:04:19.046Z,28.69
2023-05-01T11:05:28.894Z,28.69
2023-05-01T11:06:20.276Z,28.65
2023-05-01T11:07:19.373Z,28.70
2023-05-01T11:08:19.058Z,28.65
2023-05-01T11:09:19.093Z,28.69
2023-05-01T11:10:19.086Z,28.67
2023-05-01T11:11:19.041Z,28.67
2023-05-01T11:12:19.058Z,28.65
2023-05-01T11:13:19.006Z,28.68
2023-05-01T11:14:19.003Z,28.70
2023-05-01T11:15:19.024Z,28.63
2023-05-01T11:16:19.005Z,28.68
2023-05-01T11:17:19.026Z,28.67
2023-05-01T11:18:19.032Z,28.67
2023-05-01T11:19:18.989Z,28.71
2023-05-01T11:20:18.971Z,28.69
2023-05-01T11:21:18.983Z,28.68
2023-05-01T11:22:19.010Z,28.62
2023-05-01T11:23:18.987Z,28.67
2023-05-01T11:24:19.018Z,28.64
2023-05-01T11:25:19.046Z,28.68
2023-05-01T11:26:19.023Z,28.69
2023-05-01T11:27:19.046Z,28.69
2023-05-01T11:28:19.016Z,28.68
2023-05-01T11:29:19.070Z,28.67
2023-05-01T11:30:19.099Z,28.68
2023-05-01T11:31:19.162Z,28.71
2023-05-01T11:32:19.265Z,28.69
2023-05-01T11:33:19.203Z,28.74
2023-05-01T11:34:19.216Z,28.70
2023-05-01T11:35:19.201Z,28.68
2023-05-01T11:36:19.216Z,28.68
2023-05-01T11:37:19.238Z,28.70
2023-05-01T11:38:19.271Z,28.71
2023-05-01T11:39:19.288Z,28.75
2023-05-01T11:40:19.293Z,28.68
2023-05-01T11:41:20.339Z,28.71
2023-05-01T11:42:19.373Z,28.72
2023-05-01T11:43:19.405Z,28.71
2023-05-01T11:44:19.378Z,28.69
2023-05-01T11:45:19.398Z,28.71
2023-05-01T11:46:19.523Z,28.77
2023-05-01T11:47:19.480Z,28.72
2023-05-01T11:48:19.525Z,28.74
2023-05-01T11:49:19.477Z,28.74
2023-05-01T11:50:19.507Z,28.70
2023-05-01T11:51:19.657Z,28.67
2023-05-01T11:52:19.562Z,28.73
2023-05-01T11:53:19.563Z,28.70
2023-05-01T11:54:19.606Z,28.71
2023-05-01T11:55:19.626Z,28.70
2023-05-01T11:56:26.650Z,28.68
2023-05-01T11:57:20.615Z,28.71
2023-05-01T11:58:19.631Z,28.68
2023-05-01T11:59:19.625Z,28.71
2023-05-01T12:00:19.579Z,28.74
2023-05-01T12:01:19.638Z,28.68
2023-05-01T12:02:19.657Z,28.71
2023-05-01T12:03:19.727Z,28.67
2023-05-01T12:04:19.658Z,28.71
2023-05-01T12:05:19.567Z,28.70
2023-05-01T12:06:19.584Z,28.70
2023-05-01T12:07:19.577Z,28.71
2023-05-01T12:08:19.572Z,28.71
2023-05-01T12:09:19.527Z,28.75
2023-05-01T12:10:19.518Z,28.71
2023-05-01T12:11:19.546Z,28.71
2023-05-01T12:12:19.510Z,28.70
2023-05-01T12:13:19.517Z,28.71
2023-05-01T12:14:19.543Z,28.68
2023-05-01T12:15:19.471Z,28.71
2023-05-01T12:16:19.554Z,28.67
2023-05-01T12:17:19.709Z,28.65
2023-05-01T12:18:19.728Z,28.64
2023-05-01T12:19:21.631Z,28.62
2023-05-01T12:20:19.550Z,28.67
2023-05-01T12:21:19.565Z,28.64
2023-05-01T12:22:19.622Z,28.61
2023-05-01T12:23:19.606Z,28.61
2023-05-01T12:24:19.642Z,28.62
2023-05-01T12:25:19.639Z,28.54
2023-05-01T12:26:19.763Z,28.57
2023-05-01T12:27:19.721Z,28.55
2023-05-01T12:28:19.873Z,28.52
2023-05-01T12:29:19.783Z,28.55
2023-05-01T12:30:19.814Z,28.51
2023-05-01T12:31:19.839Z,28.55
2023-05-01T12:32:19.826Z,28.55
2023-05-01T12:33:19.918Z,28.55
2023-05-01T12:34:19.893Z,28.48
2023-05-01T12:35:19.923Z,28.50
2023-05-01T12:36:19.929Z,28.48
2023-05-01T12:37:19.946Z,28.48
2023-05-01T12:38:19.981Z,28.45
2023-05-01T12:39:19.978Z,28.47
2023-05-01T12:40:20.048Z,28.44
2023-05-01T12:41:20.060Z,28.42
2023-05-01T12:42:20.054Z,28.40
2023-05-01T12:43:20.088Z,28.38
2023-05-01T12:44:20.123Z,28.37
2023-05-01T12:45:20.163Z,28.35
2023-05-01T12:46:20.205Z,28.29
2023-05-01T12:47:20.170Z,28.32
2023-05-01T12:48:20.182Z,28.32
2023-05-01T12:49:20.217Z,28.24
2023-05-01T12:50:20.219Z,28.25
2023-05-01T12:51:20.237Z,28.24
2023-05-01T12:52:20.249Z,28.23
2023-05-01T12:53:20.314Z,28.21
2023-05-01T12:54:20.334Z,28.18
2023-05-01T12:55:20.344Z,28.17
2023-05-01T12:56:20.315Z,28.11
2023-05-01T12:57:20.372Z,28.17
2023-05-01T12:58:20.383Z,28.13
2023-05-01T12:59:20.416Z,28.08
2023-05-01T13:00:20.449Z,28.10
2023-05-01T13:01:20.473Z,28.06
2023-05-01T13:02:20.518Z,28.00
2023-05-01T13:03:20.536Z,27.94
2023-05-01T13:04:20.618Z,27.93
2023-05-01T13:05:20.521Z,27.91
2023-05-01T13:06:20.554Z,27.88
2023-05-01T13:07:20.574Z,27.78
2023-05-01T13:08:20.575Z,27.84
2023-05-01T13:09:20.584Z,27.76
2023-05-01T13:10:20.625Z,27.75
2023-05-01T13:11:20.678Z,27.70
2023-05-01T13:12:20.676Z,27.72
2023-05-01T13:13:20.667Z,27.65
2023-05-01T13:14:20.749Z,27.67
2023-05-01T13:15:20.737Z,27.61
2023-05-01T13:16:20.841Z,27.67
2023-05-01T13:17:20.850Z,27.71
2023-05-01T13:18:20.807Z,27.73
2023-05-01T13:19:20.808Z,27.67
2023-05-01T13:20:20.876Z,27.70
2023-05-01T13:21:20.908Z,27.67
2023-05-01T13:22:20.881Z,27.64
2023-05-01T13:23:20.917Z,27.66
2023-05-01T13:24:20.886Z,27.70
2023-05-01T13:25:21.041Z,27.73
2023-05-01T13:26:20.993Z,27.69
2023-05-01T13:27:21.001Z,27.74
2023-05-01T13:28:21.024Z,27.73
2023-05-01T13:29:21.017Z,27.79
2023-05-01T13:30:21.077Z,27.77
2023-05-01T13:31:21.193Z,27.82
2023-05-01T13:32:21.145Z,27.77
2023-05-01T13:33:21.142Z,27.76
2023-05-01T13:34:21.135Z,27.83
2023-05-01T13:35:21.226Z,27.82
2023-05-01T13:36:26.154Z,27.73
2023-05-01T13:37:22.198Z,27.79
2023-05-01T13:38:21.180Z,27.75
2023-05-01T13:39:21.470Z,27.73
2023-05-01T13:40:21.158Z,27.72
2023-05-01T13:41:21.146Z,27.69
2023-05-01T13:42:21.231Z,27.71
2023-05-01T13:43:21.137Z,27.72
2023-05-01T13:44:21.135Z,27.69
2023-05-01T13:45:21.152Z,27.64
2023-05-01T13:46:21.184Z,27.64
2023-05-01T13:47:21.135Z,27.66
2023-05-01T13:48:21.151Z,27.61
2023-05-01T13:49:21.100Z,27.62
2023-05-01T13:50:21.111Z,27.66
2023-05-01T13:51:21.083Z,27.71
2023-05-01T13:52:21.056Z,27.69
2023-05-01T13:53:21.053Z,27.66
2023-05-01T13:54:21.061Z,27.71
2023-05-01T13:55:21.112Z,27.68
2023-05-01T13:56:21.075Z,27.72
2023-05-01T13:57:21.080Z,27.72
2023-05-01T13:58:21.064Z,27.78
2023-05-01T13:59:21.030Z,27.79
2023-05-01T14:00:21.076Z,27.81
2023-05-01T14:01:21.386Z,27.75
2023-05-01T14:02:21.114Z,27.82
2023-05-01T14:03:21.246Z,27.75
2023-05-01T14:04:21.325Z,27.79
2023-05-01T14:05:21.148Z,27.77
2023-05-01T14:06:21.304Z,27.79
2023-05-01T14:07:21.227Z,27.78
2023-05-01T14:08:21.194Z,27.81
2023-05-01T14:09:21.273Z,27.78
2023-05-01T14:10:21.235Z,27.83
2023-05-01T14:11:21.331Z,27.84
2023-05-01T14:12:21.334Z,27.81
2023-05-01T14:13:21.306Z,27.81
2023-05-01T14:14:21.303Z,27.82
2023-05-01T14:15:21.354Z,27.84
2023-05-01T14:16:21.338Z,27.84
2023-05-01T14:17:21.347Z,27.81
2023-05-01T14:18:21.395Z,27.89
2023-05-01T14:19:21.519Z,27.89
2023-05-01T14:20:21.401Z,27.93
2023-05-01T14:21:21.395Z,27.92
2023-05-01T14:22:21.430Z,27.98
2023-05-01T14:23:21.423Z,27.93
2023-05-01T14:24:21.439Z,27.92
2023-05-01T14:25:21.505Z,27.92
2023-05-01T14:26:21.463Z,27.98
2023-05-01T14:27:22.211Z,27.98
2023-05-01T14:28:21.456Z,27.99
2023-05-01T14:29:21.512Z,28.00
2023-05-01T14:30:21.494Z,28.03
2023-05-01T14:31:21.773Z,27.96
2023-05-01T14:32:22.293Z,28.02
2023-05-01T14:33:21.553Z,27.98
2023-05-01T14:34:21.537Z,27.99
2023-05-01T14:35:21.604Z,28.02
2023-05-01T14:36:21.561Z,28.01
2023-05-01T14:37:21.565Z,28.03
2023-05-01T14:38:21.610Z,28.06
2023-05-01T14:39:21.606Z,28.03
2023-05-01T14:40:21.651Z,28.03
2023-05-01T14:41:21.700Z,28.06
2023-05-01T14:42:21.647Z,28.04
2023-05-01T14:43:21.634Z,28.09
2023-05-01T14:44:21.698Z,28.07
2023-05-01T14:45:21.714Z,28.06
2023-05-01T14:46:21.791Z,28.09
2023-05-01T14:47:21.807Z,28.07
2023-05-01T14:48:21.748Z,28.07
2023-05-01T14:49:21.773Z,28.12
2023-05-01T14:50:21.761Z,28.10
2023-05-01T14:51:21.803Z,28.10
2023-05-01T14:52:21.768Z,28.12
2023-05-01T14:53:21.803Z,28.12
2023-05-01T14:54:21.871Z,28.10
2023-05-01T14:55:21.861Z,28.12
2023-05-01T14:56:21.862Z,28.14
2023-05-01T14:57:21.848Z,28.13
2023-05-01T14:58:21.886Z,28.16
2023-05-01T14:59:21.881Z,28.17
2023-05-01T15:00:21.885Z,28.16
2023-05-01T15:01:22.064Z,28.13
2023-05-01T15:02:21.996Z,28.16
2023-05-01T15:03:22.131Z,28.20
2023-05-01T15:04:22.073Z,28.16
2023-05-01T15:05:21.989Z,28.19
2023-05-01T15:06:22.030Z,28.16
2023-05-01T15:07:22.045Z,28.16
2023-05-01T15:08:22.018Z,28.20
2023-05-01T15:09:22.044Z,28.20
2023-05-01T15:10:22.049Z,28.22
2023-05-01T15:11:22.098Z,28.20
2023-05-01T15:12:22.095Z,28.22
2023-05-01T15:13:22.132Z,28.22
2023-05-01T15:14:22.167Z,28.22
2023-05-01T15:15:22.143Z,28.17
2023-05-01T15:16:22.145Z,28.23
2023-05-01T15:17:22.235Z,28.20
2023-05-01T15:18:22.271Z,28.20
2023-05-01T15:19:22.241Z,28.24
2023-05-01T15:20:22.244Z,28.27
2023-05-01T15:21:22.413Z,28.21
2023-05-01T15:22:22.720Z,28.27
2023-05-01T15:23:22.299Z,28.25
2023-05-01T15:24:22.347Z,28.27
2023-05-01T15:25:22.387Z,28.28
2023-05-01T15:26:22.377Z,28.28
2023-05-01T15:27:22.380Z,28.28
2023-05-01T15:28:22.447Z,28.24
2023-05-01T15:29:22.420Z,28.30
2023-05-01T15:30:22.658Z,28.31
2023-05-01T15:31:22.533Z,28.25
2023-05-01T15:32:22.589Z,28.30
2023-05-01T15:33:22.579Z,28.32
2023-05-01T15:34:22.533Z,28.31
2023-05-01T15:35:22.566Z,28.27
2023-05-01T15:36:22.597Z,28.34
2023-05-01T15:37:22.615Z,28.30
2023-05-01T15:38:22.680Z,28.28
2023-05-01T15:39:22.638Z,28.35
2023-05-01T15:40:22.701Z,28.31
2023-05-01T15:41:22.717Z,28.35
2023-05-01T15:42:22.705Z,28.32
2023-05-01T15:43:22.768Z,28.34
2023-05-01T15:44:22.753Z,28.36
2023-05-01T15:45:22.764Z,28.38
2023-05-01T15:46:22.928Z,28.35
2023-05-01T15:47:22.984Z,28.34
2023-05-01T15:48:22.847Z,28.41
2023-05-01T15:49:22.887Z,28.39
2023-05-01T15:50:22.881Z,28.39
2023-05-01T15:51:22.932Z,28.38
2023-05-01T15:52:22.898Z,28.41
2023-05-01T15:53:22.964Z,28.38
2023-05-01T15:54:22.955Z,28.38
2023-05-01T15:55:23.008Z,28.42
2023-05-01T15:56:23.020Z,28.39
2023-05-01T15:57:23.124Z,28.43
2023-05-01T15:58:23.031Z,28.42
2023-05-01T15:59:23.045Z,28.39
2023-05-01T16:00:23.072Z,28.40
2023-05-01T16:01:23.166Z,28.42
2023-05-01T16:02:23.201Z,28.41
2023-05-01T16:03:23.412Z,28.46
2023-05-01T16:04:23.161Z,28.45
2023-05-01T16:05:23.201Z,28.46
2023-05-01T16:06:23.268Z,28.45
2023-05-01T16:07:23.264Z,28.43
2023-05-01T16:08:23.222Z,28.46
2023-05-01T16:09:23.276Z,28.39
2023-05-01T16:10:23.383Z,28.46
2023-05-01T16:11:23.314Z,28.42
2023-05-01T16:12:23.393Z,28.46
2023-05-01T16:13:23.359Z,28.45
2023-05-01T16:14:23.368Z,28.46
2023-05-01T16:15:23.416Z,28.46
2023-05-01T16:16:23.427Z,28.45
2023-05-01T16:17:23.475Z,28.43
2023-05-01T16:18:23.465Z,28.49
2023-05-01T16:19:23.477Z,28.45
2023-05-01T16:20:23.445Z,28.47
2023-05-01T16:21:23.470Z,28.49
2023-05-01T16:22:23.528Z,28.50
2023-05-01T16:23:23.523Z,28.50
2023-05-01T16:24:23.561Z,28.49
2023-05-01T16:25:23.567Z,28.51
2023-05-01T16:26:24.743Z,28.56
2023-05-01T16:27:23.621Z,28.51
2023-05-01T16:28:23.619Z,28.50
2023-05-01T16:29:23.785Z,28.56
2023-05-01T16:30:23.687Z,28.51
2023-05-01T16:31:27.673Z,28.53
2023-05-01T16:32:23.747Z,28.54
2023-05-01T16:33:23.657Z,28.54
2023-05-01T16:34:23.680Z,28.50
2023-05-01T16:35:23.674Z,28.53
2023-05-01T16:36:23.673Z,28.56
2023-05-01T16:37:23.672Z,28.57
2023-05-01T16:38:23.597Z,28.56
2023-05-01T16:39:23.640Z,28.56
2023-05-01T16:40:23.606Z,28.51
2023-05-01T16:41:23.609Z,28.56
2023-05-01T16:42:23.598Z,28.57
2023-05-01T16:43:23.595Z,28.57
2023-05-01T16:44:23.598Z,28.60
2023-05-01T16:45:23.600Z,28.57
2023-05-01T16:46:23.691Z,28.58
2023-05-01T16:47:23.566Z,28.57
2023-05-01T16:48:23.707Z,28.57
2023-05-01T16:49:23.585Z,28.57
2023-05-01T16:50:23.532Z,28.61
2023-05-01T16:51:23.558Z,28.61
2023-05-01T16:52:23.515Z,28.59
2023-05-01T16:53:23.502Z,28.62
2023-05-01T16:54:23.545Z,28.64
2023-05-01T16:55:23.534Z,28.58
2023-05-01T16:56:23.512Z,28.62
2023-05-01T16:57:23.493Z,28.59
2023-05-01T16:58:23.477Z,28.62
2023-05-01T16:59:23.486Z,28.64
2023-05-01T17:00:30.997Z,28.67
